sensor_id;sensor_type;location;lat;lon;timestamp;pressure;altitude;pressure_sealevel;temperature;humidity
48424;BME280;34232;42.502;26.014;2023-05-22T00:00:39;99677.66;;;17.88;75.20
48424;BME280;34232;42.502;26.014;2023-05-22T00:03:05;99686.66;;;17.87;74.67
48424;BME280;34232;42.502;26.014;2023-05-22T00:05:30;99676.31;;;17.92;73.93
48424;BME280;34232;42.502;26.014;2023-05-22T00:07:58;99674.09;;;17.96;72.96
48424;BME280;34232;42.502;26.014;2023-05-22T00:10:23;99665.81;;;17.91;71.42
48424;BME280;34232;42.502;26.014;2023-05-22T00:12:48;99677.78;;;17.95;68.77
48424;BME280;34232;42.502;26.014;2023-05-22T00:15:14;99675.00;;;18.03;69.04
48424;BME280;34232;42.502;26.014;2023-05-22T00:17:39;99671.25;;;17.97;67.71
48424;BME280;34232;42.502;26.014;2023-05-22T00:20:04;99674.94;;;17.96;65.15
48424;BME280;34232;42.502;26.014;2023-05-22T00:22:31;99673.38;;;18.02;61.82
48424;BME280;34232;42.502;26.014;2023-05-22T00:25:00;99668.50;;;18.05;61.13
48424;BME280;34232;42.502;26.014;2023-05-22T00:27:25;99671.06;;;18.13;60.27
48424;BME280;34232;42.502;26.014;2023-05-22T00:29:50;99664.63;;;18.23;59.74
48424;BME280;34232;42.502;26.014;2023-05-22T00:32:15;99655.25;;;18.27;57.23
48424;BME280;34232;42.502;26.014;2023-05-22T00:34:41;99660.69;;;18.33;55.19
48424;BME280;34232;42.502;26.014;2023-05-22T00:37:06;99661.13;;;18.37;56.13
48424;BME280;34232;42.502;26.014;2023-05-22T00:39:31;99659.91;;;18.39;56.80
48424;BME280;34232;42.502;26.014;2023-05-22T00:41:56;99661.31;;;18.50;54.63
48424;BME280;34232;42.502;26.014;2023-05-22T00:44:22;99660.19;;;18.59;54.05
48424;BME280;34232;42.502;26.014;2023-05-22T00:46:47;99662.13;;;18.65;54.56
48424;BME280;34232;42.502;26.014;2023-05-22T00:49:13;99657.03;;;18.70;54.24
48424;BME280;34232;42.502;26.014;2023-05-22T00:51:38;99656.28;;;18.76;52.32
48424;BME280;34232;42.502;26.014;2023-05-22T00:54:03;99652.25;;;18.80;52.92
48424;BME280;34232;42.502;26.014;2023-05-22T00:56:29;99659.22;;;18.81;51.90
48424;BME280;34232;42.502;26.014;2023-05-22T00:58:55;99648.84;;;18.72;52.62
48424;BME280;34232;42.502;26.014;2023-05-22T01:01:20;99652.84;;;18.61;51.53
48424;BME280;34232;42.502;26.014;2023-05-22T01:03:47;99652.19;;;18.59;49.58
48424;BME280;34232;42.502;26.014;2023-05-22T01:06:15;99642.50;;;18.58;51.26
48424;BME280;34232;42.502;26.014;2023-05-22T01:08:42;99644.66;;;18.63;51.66
48424;BME280;34232;42.502;26.014;2023-05-22T01:11:15;99642.00;;;18.63;51.71
48424;BME280;34232;42.502;26.014;2023-05-22T01:13:48;99640.22;;;18.55;51.58
48424;BME280;34232;42.502;26.014;2023-05-22T01:16:23;99647.75;;;18.51;52.68
48424;BME280;34232;42.502;26.014;2023-05-22T01:32:08;99652.44;;;17.84;55.03
48424;BME280;34232;42.502;26.014;2023-05-22T01:34:34;99655.16;;;17.91;55.00
48424;BME280;34232;42.502;26.014;2023-05-22T01:37:01;99652.22;;;17.71;55.99
48424;BME280;34232;42.502;26.014;2023-05-22T01:39:26;99657.97;;;17.60;57.26
48424;BME280;34232;42.502;26.014;2023-05-22T01:41:52;99659.38;;;17.70;57.70
48424;BME280;34232;42.502;26.014;2023-05-22T01:44:17;99661.59;;;17.67;56.97
48424;BME280;34232;42.502;26.014;2023-05-22T01:46:43;99662.69;;;17.72;58.53
48424;BME280;34232;42.502;26.014;2023-05-22T01:49:08;99657.19;;;17.74;58.57
48424;BME280;34232;42.502;26.014;2023-05-22T01:56:38;99653.97;;;17.64;58.69
48424;BME280;34232;42.502;26.014;2023-05-22T01:59:08;99651.59;;;17.69;58.76
48424;BME280;34232;42.502;26.014;2023-05-22T02:01:34;99651.94;;;17.66;58.83
48424;BME280;34232;42.502;26.014;2023-05-22T02:04:01;99653.28;;;17.62;59.15
48424;BME280;34232;42.502;26.014;2023-05-22T02:06:28;99648.03;;;17.54;59.32
48424;BME280;34232;42.502;26.014;2023-05-22T02:08:56;99645.09;;;17.48;59.34
48424;BME280;34232;42.502;26.014;2023-05-22T02:11:21;99645.47;;;17.45;60.22
48424;BME280;34232;42.502;26.014;2023-05-22T02:13:48;99645.81;;;17.42;60.33
48424;BME280;34232;42.502;26.014;2023-05-22T02:16:14;99638.00;;;17.41;60.99
48424;BME280;34232;42.502;26.014;2023-05-22T02:18:39;99638.34;;;17.38;61.11
48424;BME280;34232;42.502;26.014;2023-05-22T02:21:05;99644.06;;;17.35;61.65
48424;BME280;34232;42.502;26.014;2023-05-22T02:23:32;99634.97;;;17.29;62.40
48424;BME280;34232;42.502;26.014;2023-05-22T02:25:57;99642.28;;;17.27;62.34
48424;BME280;34232;42.502;26.014;2023-05-22T02:28:23;99638.63;;;17.28;62.06
48424;BME280;34232;42.502;26.014;2023-05-22T02:30:48;99629.34;;;17.24;61.99
48424;BME280;34232;42.502;26.014;2023-05-22T02:33:13;99635.13;;;17.28;62.04
48424;BME280;34232;42.502;26.014;2023-05-22T02:35:42;99634.13;;;17.29;61.11
48424;BME280;34232;42.502;26.014;2023-05-22T02:38:07;99634.25;;;17.35;60.51
48424;BME280;34232;42.502;26.014;2023-05-22T02:40:32;99625.72;;;17.40;61.38
48424;BME280;34232;42.502;26.014;2023-05-22T02:42:57;99626.19;;;17.43;61.04
48424;BME280;34232;42.502;26.014;2023-05-22T02:45:23;99635.16;;;17.42;61.43
48424;BME280;34232;42.502;26.014;2023-05-22T02:47:48;99643.16;;;17.42;62.45
48424;BME280;34232;42.502;26.014;2023-05-22T02:50:13;99639.84;;;17.40;61.93
48424;BME280;34232;42.502;26.014;2023-05-22T02:52:38;99651.50;;;17.39;61.99
48424;BME280;34232;42.502;26.014;2023-05-22T02:55:04;99639.09;;;17.32;61.87
48424;BME280;34232;42.502;26.014;2023-05-22T02:57:29;99648.44;;;17.28;63.47
48424;BME280;34232;42.502;26.014;2023-05-22T02:59:55;99653.28;;;17.24;61.94
48424;BME280;34232;42.502;26.014;2023-05-22T03:02:21;99649.63;;;17.25;62.61
48424;BME280;34232;42.502;26.014;2023-05-22T03:04:47;99656.59;;;17.26;63.28
48424;BME280;34232;42.502;26.014;2023-05-22T03:07:12;99656.25;;;17.29;63.16
48424;BME280;34232;42.502;26.014;2023-05-22T03:09:37;99653.59;;;17.29;63.46
48424;BME280;34232;42.502;26.014;2023-05-22T03:12:02;99657.78;;;17.24;63.64
48424;BME280;34232;42.502;26.014;2023-05-22T03:14:29;99661.09;;;17.26;63.88
48424;BME280;34232;42.502;26.014;2023-05-22T03:16:54;99665.22;;;17.28;63.60
48424;BME280;34232;42.502;26.014;2023-05-22T03:19:19;99662.88;;;17.33;63.64
48424;BME280;34232;42.502;26.014;2023-05-22T03:21:45;99669.47;;;17.37;63.38
48424;BME280;34232;42.502;26.014;2023-05-22T03:24:12;99673.63;;;17.17;65.32
48424;BME280;34232;42.502;26.014;2023-05-22T03:26:37;99680.72;;;17.25;64.93
48424;BME280;34232;42.502;26.014;2023-05-22T03:29:03;99671.03;;;17.32;65.09
48424;BME280;34232;42.502;26.014;2023-05-22T03:31:28;99681.75;;;17.38;65.38
48424;BME280;34232;42.502;26.014;2023-05-22T03:33:57;99683.91;;;17.43;65.96
48424;BME280;34232;42.502;26.014;2023-05-22T03:36:22;99682.72;;;17.45;66.70
48424;BME280;34232;42.502;26.014;2023-05-22T03:38:48;99688.50;;;17.49;66.30
48424;BME280;34232;42.502;26.014;2023-05-22T03:41:13;99689.34;;;17.49;67.65
48424;BME280;34232;42.502;26.014;2023-05-22T03:43:38;99694.31;;;17.53;67.81
48424;BME280;34232;42.502;26.014;2023-05-22T03:46:03;99692.28;;;17.55;67.82
48424;BME280;34232;42.502;26.014;2023-05-22T03:48:29;99695.22;;;17.60;69.01
48424;BME280;34232;42.502;26.014;2023-05-22T03:50:55;99696.56;;;17.64;68.53
48424;BME280;34232;42.502;26.014;2023-05-22T03:53:20;99699.88;;;17.66;67.83
48424;BME280;34232;42.502;26.014;2023-05-22T03:55:46;99702.53;;;17.66;66.87
48424;BME280;34232;42.502;26.014;2023-05-22T03:58:11;99699.22;;;17.64;66.93
48424;BME280;34232;42.502;26.014;2023-05-22T04:00:36;99704.69;;;17.62;67.61
48424;BME280;34232;42.502;26.014;2023-05-22T04:03:02;99702.56;;;17.58;68.34
48424;BME280;34232;42.502;26.014;2023-05-22T04:05:27;99703.53;;;17.65;68.39
48424;BME280;34232;42.502;26.014;2023-05-22T04:07:54;99698.69;;;17.68;67.43
48424;BME280;34232;42.502;26.014;2023-05-22T04:10:22;99699.88;;;17.66;65.45
48424;BME280;34232;42.502;26.014;2023-05-22T04:12:48;99705.19;;;17.66;65.65
48424;BME280;34232;42.502;26.014;2023-05-22T04:15:13;99697.13;;;17.74;65.53
48424;BME280;34232;42.502;26.014;2023-05-22T04:17:39;99692.00;;;17.87;64.57
48424;BME280;34232;42.502;26.014;2023-05-22T04:20:05;99683.56;;;17.98;63.27
48424;BME280;34232;42.502;26.014;2023-05-22T04:22:31;99689.09;;;18.11;67.13
48424;BME280;34232;42.502;26.014;2023-05-22T04:24:57;99689.63;;;18.22;67.08
48424;BME280;34232;42.502;26.014;2023-05-22T04:27:22;99693.03;;;18.30;65.31
48424;BME280;34232;42.502;26.014;2023-05-22T04:29:47;99696.59;;;18.37;66.61
48424;BME280;34232;42.502;26.014;2023-05-22T04:32:14;99699.00;;;18.47;69.08
48424;BME280;34232;42.502;26.014;2023-05-22T04:34:42;99706.88;;;18.55;66.74
48424;BME280;34232;42.502;26.014;2023-05-22T04:37:08;99712.56;;;18.52;66.81
48424;BME280;34232;42.502;26.014;2023-05-22T04:39:34;99701.84;;;18.60;67.21
48424;BME280;34232;42.502;26.014;2023-05-22T04:41:59;99708.97;;;18.74;65.80
48424;BME280;34232;42.502;26.014;2023-05-22T04:44:30;99711.34;;;18.84;67.69
48424;BME280;34232;42.502;26.014;2023-05-22T04:46:58;99713.09;;;18.92;67.17
48424;BME280;34232;42.502;26.014;2023-05-22T04:49:24;99712.72;;;18.95;60.68
48424;BME280;34232;42.502;26.014;2023-05-22T04:51:50;99716.91;;;19.04;63.23
48424;BME280;34232;42.502;26.014;2023-05-22T04:54:15;99712.03;;;19.07;62.09
48424;BME280;34232;42.502;26.014;2023-05-22T04:56:40;99719.69;;;18.96;61.66
48424;BME280;34232;42.502;26.014;2023-05-22T04:59:06;99717.28;;;19.01;64.89
48424;BME280;34232;42.502;26.014;2023-05-22T05:01:32;99722.69;;;19.07;63.08
48424;BME280;34232;42.502;26.014;2023-05-22T05:03:59;99713.69;;;19.08;62.48
48424;BME280;34232;42.502;26.014;2023-05-22T05:06:24;99710.44;;;19.13;59.01
48424;BME280;34232;42.502;26.014;2023-05-22T05:08:50;99721.03;;;19.06;59.19
48424;BME280;34232;42.502;26.014;2023-05-22T05:11:17;99709.53;;;19.06;58.68
48424;BME280;34232;42.502;26.014;2023-05-22T05:13:42;99708.78;;;19.12;59.04
48424;BME280;34232;42.502;26.014;2023-05-22T05:16:07;99709.16;;;19.09;58.12
48424;BME280;34232;42.502;26.014;2023-05-22T05:18:32;99715.38;;;19.16;60.50
48424;BME280;34232;42.502;26.014;2023-05-22T05:20:58;99715.59;;;19.14;56.79
48424;BME280;34232;42.502;26.014;2023-05-22T05:23:23;99712.97;;;19.21;57.97
48424;BME280;34232;42.502;26.014;2023-05-22T05:25:49;99720.47;;;19.32;58.64
48424;BME280;34232;42.502;26.014;2023-05-22T05:28:14;99721.81;;;19.43;59.82
48424;BME280;34232;42.502;26.014;2023-05-22T05:30:39;99717.19;;;19.30;58.86
48424;BME280;34232;42.502;26.014;2023-05-22T05:33:05;99726.31;;;19.42;57.75
48424;BME280;34232;42.502;26.014;2023-05-22T05:35:30;99722.00;;;19.41;57.31
48424;BME280;34232;42.502;26.014;2023-05-22T05:37:55;99721.59;;;19.59;61.44
48424;BME280;34232;42.502;26.014;2023-05-22T05:40:21;99728.22;;;19.70;59.97
48424;BME280;34232;42.502;26.014;2023-05-22T05:42:46;99727.47;;;19.76;61.36
48424;BME280;34232;42.502;26.014;2023-05-22T05:45:12;99732.81;;;19.76;57.73
48424;BME280;34232;42.502;26.014;2023-05-22T05:47:37;99733.28;;;19.86;58.48
48424;BME280;34232;42.502;26.014;2023-05-22T05:50:02;99724.22;;;19.80;58.90
48424;BME280;34232;42.502;26.014;2023-05-22T05:52:27;99732.81;;;19.76;57.15
48424;BME280;34232;42.502;26.014;2023-05-22T05:54:56;99729.22;;;19.90;57.10
48424;BME280;34232;42.502;26.014;2023-05-22T05:57:22;99738.09;;;19.97;58.14
48424;BME280;34232;42.502;26.014;2023-05-22T05:59:47;99730.97;;;20.04;58.69
48424;BME280;34232;42.502;26.014;2023-05-22T06:02:12;99729.16;;;20.11;58.90
48424;BME280;34232;42.502;26.014;2023-05-22T06:04:37;99731.44;;;20.14;59.75
48424;BME280;34232;42.502;26.014;2023-05-22T06:07:03;99730.91;;;20.25;63.57
48424;BME280;34232;42.502;26.014;2023-05-22T06:09:28;99719.00;;;20.35;63.24
48424;BME280;34232;42.502;26.014;2023-05-22T06:11:53;99731.75;;;20.33;58.47
48424;BME280;34232;42.502;26.014;2023-05-22T06:14:18;99730.28;;;20.23;57.63
48424;BME280;34232;42.502;26.014;2023-05-22T06:16:44;99723.72;;;20.33;56.80
48424;BME280;34232;42.502;26.014;2023-05-22T06:19:09;99732.56;;;20.26;58.83
48424;BME280;34232;42.502;26.014;2023-05-22T06:21:35;99726.28;;;20.41;57.31
48424;BME280;34232;42.502;26.014;2023-05-22T06:24:00;99725.72;;;20.52;56.97
48424;BME280;34232;42.502;26.014;2023-05-22T06:26:25;99723.72;;;20.60;56.56
48424;BME280;34232;42.502;26.014;2023-05-22T06:28:51;99727.59;;;20.58;55.76
48424;BME280;34232;42.502;26.014;2023-05-22T06:31:18;99728.09;;;20.75;55.20
48424;BME280;34232;42.502;26.014;2023-05-22T06:33:43;99736.31;;;20.73;56.37
48424;BME280;34232;42.502;26.014;2023-05-22T06:36:08;99735.50;;;20.79;55.97
48424;BME280;34232;42.502;26.014;2023-05-22T06:38:35;99731.59;;;20.82;55.59
48424;BME280;34232;42.502;26.014;2023-05-22T06:41:02;99734.94;;;20.90;54.85
48424;BME280;34232;42.502;26.014;2023-05-22T06:43:27;99742.25;;;21.23;56.32
48424;BME280;34232;42.502;26.014;2023-05-22T06:45:52;99734.44;;;21.28;53.79
48424;BME280;34232;42.502;26.014;2023-05-22T06:48:17;99735.69;;;21.32;53.22
48424;BME280;34232;42.502;26.014;2023-05-22T06:50:43;99740.22;;;21.32;54.19
48424;BME280;34232;42.502;26.014;2023-05-22T06:53:09;99734.63;;;21.20;52.74
48424;BME280;34232;42.502;26.014;2023-05-22T06:55:35;99735.00;;;21.17;54.25
48424;BME280;34232;42.502;26.014;2023-05-22T06:58:00;99730.69;;;21.09;55.03
48424;BME280;34232;42.502;26.014;2023-05-22T07:00:26;99731.75;;;21.21;53.74
48424;BME280;34232;42.502;26.014;2023-05-22T07:02:51;99740.81;;;21.20;54.44
48424;BME280;34232;42.502;26.014;2023-05-22T07:05:16;99738.56;;;21.24;56.05
48424;BME280;34232;42.502;26.014;2023-05-22T07:07:44;99739.38;;;21.31;57.13
48424;BME280;34232;42.502;26.014;2023-05-22T07:10:09;99738.38;;;21.45;56.29
48424;BME280;34232;42.502;26.014;2023-05-22T07:12:35;99743.53;;;21.47;55.64
48424;BME280;34232;42.502;26.014;2023-05-22T07:15:00;99742.28;;;21.49;56.37
48424;BME280;34232;42.502;26.014;2023-05-22T07:17:25;99743.94;;;21.63;55.72
48424;BME280;34232;42.502;26.014;2023-05-22T07:19:51;99740.84;;;21.80;55.50
48424;BME280;34232;42.502;26.014;2023-05-22T07:22:16;99738.59;;;21.90;54.24
48424;BME280;34232;42.502;26.014;2023-05-22T07:24:41;99739.22;;;22.18;55.33
48424;BME280;34232;42.502;26.014;2023-05-22T07:27:07;99732.31;;;22.55;53.76
48424;BME280;34232;42.502;26.014;2023-05-22T07:29:33;99725.97;;;22.94;53.00
48424;BME280;34232;42.502;26.014;2023-05-22T07:31:58;99726.59;;;23.28;51.27
48424;BME280;34232;42.502;26.014;2023-05-22T07:34:23;99729.78;;;23.43;49.46
48424;BME280;34232;42.502;26.014;2023-05-22T07:36:55;99729.47;;;23.33;50.69
48424;BME280;34232;42.502;26.014;2023-05-22T07:39:21;99727.13;;;23.12;50.58
48424;BME280;34232;42.502;26.014;2023-05-22T07:41:46;99722.78;;;23.11;50.23
48424;BME280;34232;42.502;26.014;2023-05-22T07:44:14;99720.97;;;23.05;51.05
48424;BME280;34232;42.502;26.014;2023-05-22T07:46:39;99724.44;;;23.12;50.30
48424;BME280;34232;42.502;26.014;2023-05-22T07:49:04;99725.75;;;23.34;51.07
48424;BME280;34232;42.502;26.014;2023-05-22T07:51:30;99722.13;;;23.53;52.30
48424;BME280;34232;42.502;26.014;2023-05-22T07:53:56;99722.22;;;23.65;48.60
48424;BME280;34232;42.502;26.014;2023-05-22T07:56:21;99714.44;;;23.82;47.32
48424;BME280;34232;42.502;26.014;2023-05-22T07:58:46;99717.78;;;24.02;47.63
48424;BME280;34232;42.502;26.014;2023-05-22T08:01:14;99715.59;;;24.11;46.71
48424;BME280;34232;42.502;26.014;2023-05-22T08:03:40;99720.47;;;24.02;50.33
48424;BME280;34232;42.502;26.014;2023-05-22T08:06:05;99713.28;;;24.14;47.77
48424;BME280;34232;42.502;26.014;2023-05-22T08:08:30;99714.06;;;24.39;47.82
48424;BME280;34232;42.502;26.014;2023-05-22T08:10:56;99718.13;;;24.30;45.88
48424;BME280;34232;42.502;26.014;2023-05-22T08:13:22;99710.78;;;24.37;44.63
48424;BME280;34232;42.502;26.014;2023-05-22T08:15:47;99719.22;;;24.41;42.79
48424;BME280;34232;42.502;26.014;2023-05-22T08:18:12;99721.09;;;24.40;42.74
48424;BME280;34232;42.502;26.014;2023-05-22T08:20:38;99728.72;;;24.25;41.19
48424;BME280;34232;42.502;26.014;2023-05-22T08:23:03;99722.75;;;24.23;42.49
48424;BME280;34232;42.502;26.014;2023-05-22T08:25:28;99716.38;;;24.18;42.96
48424;BME280;34232;42.502;26.014;2023-05-22T08:27:53;99720.94;;;24.17;43.46
48424;BME280;34232;42.502;26.014;2023-05-22T08:30:19;99725.22;;;24.00;44.71
48424;BME280;34232;42.502;26.014;2023-05-22T08:32:44;99726.41;;;24.04;44.19
48424;BME280;34232;42.502;26.014;2023-05-22T08:35:09;99725.69;;;24.15;43.94
48424;BME280;34232;42.502;26.014;2023-05-22T08:37:35;99721.88;;;24.48;43.55
48424;BME280;34232;42.502;26.014;2023-05-22T08:40:01;99718.06;;;24.85;41.74
48424;BME280;34232;42.502;26.014;2023-05-22T08:42:26;99716.56;;;25.07;40.83
48424;BME280;34232;42.502;26.014;2023-05-22T08:44:51;99712.75;;;25.27;41.23
48424;BME280;34232;42.502;26.014;2023-05-22T08:47:19;99709.25;;;25.26;40.00
48424;BME280;34232;42.502;26.014;2023-05-22T08:49:46;99708.34;;;25.44;40.90
48424;BME280;34232;42.502;26.014;2023-05-22T08:52:17;99709.72;;;25.76;41.42
48424;BME280;34232;42.502;26.014;2023-05-22T08:54:46;99706.53;;;26.03;41.05
48424;BME280;34232;42.502;26.014;2023-05-22T08:57:14;99705.13;;;26.24;38.43
48424;BME280;34232;42.502;26.014;2023-05-22T08:59:40;99710.16;;;26.32;39.20
48424;BME280;34232;42.502;26.014;2023-05-22T09:02:06;99705.94;;;26.24;39.22
48424;BME280;34232;42.502;26.014;2023-05-22T09:04:31;99709.22;;;26.14;36.57
48424;BME280;34232;42.502;26.014;2023-05-22T09:06:56;99702.19;;;26.25;36.73
48424;BME280;34232;42.502;26.014;2023-05-22T09:09:22;99698.44;;;26.38;36.80
48424;BME280;34232;42.502;26.014;2023-05-22T09:11:48;99702.97;;;26.61;36.57
48424;BME280;34232;42.502;26.014;2023-05-22T09:14:13;99694.19;;;26.82;36.52
48424;BME280;34232;42.502;26.014;2023-05-22T09:16:46;99694.50;;;26.97;36.17
48424;BME280;34232;42.502;26.014;2023-05-22T09:19:12;99697.81;;;27.16;35.51
48424;BME280;34232;42.502;26.014;2023-05-22T09:21:38;99694.16;;;27.39;36.10
48424;BME280;34232;42.502;26.014;2023-05-22T09:24:06;99690.88;;;27.37;34.55
48424;BME280;34232;42.502;26.014;2023-05-22T09:26:31;99681.25;;;27.12;35.57
48424;BME280;34232;42.502;26.014;2023-05-22T09:29:00;99685.81;;;26.95;37.62
48424;BME280;34232;42.502;26.014;2023-05-22T09:31:29;99685.00;;;26.83;37.17
48424;BME280;34232;42.502;26.014;2023-05-22T09:33:55;99689.47;;;26.61;37.20
48424;BME280;34232;42.502;26.014;2023-05-22T09:36:21;99691.50;;;26.42;36.89
48424;BME280;34232;42.502;26.014;2023-05-22T09:38:46;99692.19;;;26.49;35.78
48424;BME280;34232;42.502;26.014;2023-05-22T09:41:14;99678.75;;;26.66;34.85
48424;BME280;34232;42.502;26.014;2023-05-22T09:43:50;99681.25;;;26.84;35.61
48424;BME280;34232;42.502;26.014;2023-05-22T09:46:15;99675.47;;;26.92;33.84
48424;BME280;34232;42.502;26.014;2023-05-22T09:48:41;99670.97;;;27.09;32.73
48424;BME280;34232;42.502;26.014;2023-05-22T09:51:06;99676.22;;;27.33;31.39
48424;BME280;34232;42.502;26.014;2023-05-22T09:53:32;99668.16;;;27.04;34.52
48424;BME280;34232;42.502;26.014;2023-05-22T09:55:58;99670.13;;;27.09;34.41
48424;BME280;34232;42.502;26.014;2023-05-22T09:58:29;99675.38;;;27.15;34.33
48424;BME280;34232;42.502;26.014;2023-05-22T10:00:55;99679.47;;;27.18;31.17
48424;BME280;34232;42.502;26.014;2023-05-22T10:03:21;99678.81;;;27.28;33.31
48424;BME280;34232;42.502;26.014;2023-05-22T10:05:48;99678.31;;;27.14;36.31
48424;BME280;34232;42.502;26.014;2023-05-22T10:08:16;99683.56;;;27.04;36.15
48424;BME280;34232;42.502;26.014;2023-05-22T10:10:42;99672.75;;;27.04;37.27
48424;BME280;34232;42.502;26.014;2023-05-22T10:13:11;99671.03;;;27.14;35.00
48424;BME280;34232;42.502;26.014;2023-05-22T10:15:37;99678.81;;;27.28;35.38
48424;BME280;34232;42.502;26.014;2023-05-22T10:18:02;99671.13;;;27.36;31.60
48424;BME280;34232;42.502;26.014;2023-05-22T10:20:28;99669.44;;;27.64;34.27
48424;BME280;34232;42.502;26.014;2023-05-22T10:22:54;99665.72;;;27.86;32.56
48424;BME280;34232;42.502;26.014;2023-05-22T10:25:19;99650.31;;;28.09;32.86
48424;BME280;34232;42.502;26.014;2023-05-22T10:27:48;99656.59;;;28.31;32.21
48424;BME280;34232;42.502;26.014;2023-05-22T10:33:02;99651.03;;;28.65;35.99
48424;BME280;34232;42.502;26.014;2023-05-22T10:40:30;99630.00;;;28.99;32.55
48424;BME280;34232;42.502;26.014;2023-05-22T10:42:57;99627.75;;;29.17;33.99
48424;BME280;34232;42.502;26.014;2023-05-22T10:45:24;99634.88;;;29.29;34.25
48424;BME280;34232;42.502;26.014;2023-05-22T10:48:00;99629.38;;;29.18;32.38
48424;BME280;34232;42.502;26.014;2023-05-22T10:50:25;99626.75;;;28.97;32.38
48424;BME280;34232;42.502;26.014;2023-05-22T10:52:51;99633.16;;;28.64;34.06
48424;BME280;34232;42.502;26.014;2023-05-22T10:55:45;99638.09;;;28.23;35.33
48424;BME280;34232;42.502;26.014;2023-05-22T10:58:13;99662.41;;;28.01;38.05
48424;BME280;34232;42.502;26.014;2023-05-22T11:00:38;99658.94;;;27.34;38.70
48424;BME280;34232;42.502;26.014;2023-05-22T11:03:03;99659.53;;;26.79;39.73
48424;BME280;34232;42.502;26.014;2023-05-22T11:05:32;99662.28;;;26.27;41.70
48424;BME280;34232;42.502;26.014;2023-05-22T11:08:10;99659.38;;;25.59;49.34
48424;BME280;34232;42.502;26.014;2023-05-22T11:10:51;99655.56;;;25.25;54.18
48424;BME280;34232;42.502;26.014;2023-05-22T11:13:17;99654.16;;;24.92;56.28
48424;BME280;34232;42.502;26.014;2023-05-22T11:15:45;99648.88;;;24.56;55.99
48424;BME280;34232;42.502;26.014;2023-05-22T11:18:10;99648.63;;;24.21;55.46
48424;BME280;34232;42.502;26.014;2023-05-22T11:20:36;99660.22;;;24.03;56.58
48424;BME280;34232;42.502;26.014;2023-05-22T11:23:04;99649.59;;;23.90;54.89
48424;BME280;34232;42.502;26.014;2023-05-22T11:25:31;99653.81;;;23.86;58.13
48424;BME280;34232;42.502;26.014;2023-05-22T11:27:56;99650.38;;;23.97;58.98
48424;BME280;34232;42.502;26.014;2023-05-22T11:30:25;99639.19;;;24.18;56.81
48424;BME280;34232;42.502;26.014;2023-05-22T11:32:51;99637.81;;;24.46;54.35
48424;BME280;34232;42.502;26.014;2023-05-22T11:35:17;99635.09;;;24.64;53.48
48424;BME280;34232;42.502;26.014;2023-05-22T11:37:43;99637.19;;;24.92;53.83
48424;BME280;34232;42.502;26.014;2023-05-22T11:40:09;99628.63;;;25.13;52.81
48424;BME280;34232;42.502;26.014;2023-05-22T11:42:35;99624.41;;;25.40;49.65
48424;BME280;34232;42.502;26.014;2023-05-22T11:45:01;99618.59;;;25.67;49.53
48424;BME280;34232;42.502;26.014;2023-05-22T11:47:26;99613.31;;;25.95;47.20
48424;BME280;34232;42.502;26.014;2023-05-22T11:49:53;99603.84;;;26.21;49.82
48424;BME280;34232;42.502;26.014;2023-05-22T11:52:18;99598.56;;;26.26;48.82
48424;BME280;34232;42.502;26.014;2023-05-22T11:54:44;99601.81;;;26.40;48.23
48424;BME280;34232;42.502;26.014;2023-05-22T11:57:10;99606.13;;;26.53;46.73
48424;BME280;34232;42.502;26.014;2023-05-22T11:59:35;99607.38;;;26.62;48.78
48424;BME280;34232;42.502;26.014;2023-05-22T12:02:00;99611.09;;;26.72;47.39
48424;BME280;34232;42.502;26.014;2023-05-22T12:04:26;99613.38;;;26.80;48.69
48424;BME280;34232;42.502;26.014;2023-05-22T12:06:52;99609.47;;;26.88;45.56
48424;BME280;34232;42.502;26.014;2023-05-22T12:09:17;99607.06;;;27.03;42.64
48424;BME280;34232;42.502;26.014;2023-05-22T12:11:46;99607.22;;;27.13;40.33
48424;BME280;34232;42.502;26.014;2023-05-22T12:14:11;99617.06;;;27.20;40.23
48424;BME280;34232;42.502;26.014;2023-05-22T12:16:37;99613.88;;;27.06;39.36
48424;BME280;34232;42.502;26.014;2023-05-22T12:19:05;99610.44;;;26.82;39.40
48424;BME280;34232;42.502;26.014;2023-05-22T12:21:31;99630.31;;;26.47;40.12
48424;BME280;34232;42.502;26.014;2023-05-22T12:23:56;99637.19;;;26.15;41.95
48424;BME280;34232;42.502;26.014;2023-05-22T12:26:22;99637.22;;;25.92;42.83
48424;BME280;34232;42.502;26.014;2023-05-22T12:28:50;99637.34;;;25.73;44.11
48424;BME280;34232;42.502;26.014;2023-05-22T12:31:19;99639.53;;;25.53;46.91
48424;BME280;34232;42.502;26.014;2023-05-22T12:33:45;99634.59;;;25.27;48.02
48424;BME280;34232;42.502;26.014;2023-05-22T12:36:11;99638.78;;;24.99;49.40
48424;BME280;34232;42.502;26.014;2023-05-22T12:38:36;99642.81;;;24.90;49.44
48424;BME280;34232;42.502;26.014;2023-05-22T12:41:03;99632.69;;;24.74;49.84
48424;BME280;34232;42.502;26.014;2023-05-22T12:43:28;99632.72;;;24.56;48.24
48424;BME280;34232;42.502;26.014;2023-05-22T12:45:53;99632.59;;;24.51;47.73
48424;BME280;34232;42.502;26.014;2023-05-22T12:48:19;99632.91;;;24.42;47.07
48424;BME280;34232;42.502;26.014;2023-05-22T12:50:44;99633.34;;;24.39;47.10
48424;BME280;34232;42.502;26.014;2023-05-22T12:53:12;99627.47;;;24.31;44.95
48424;BME280;34232;42.502;26.014;2023-05-22T12:55:38;99629.09;;;24.14;44.59
48424;BME280;34232;42.502;26.014;2023-05-22T12:58:04;99616.13;;;24.22;45.80
48424;BME280;34232;42.502;26.014;2023-05-22T13:00:29;99619.16;;;24.32;45.77
48424;BME280;34232;42.502;26.014;2023-05-22T13:02:54;99612.19;;;24.43;44.20
48424;BME280;34232;42.502;26.014;2023-05-22T13:05:20;99611.38;;;24.42;44.36
48424;BME280;34232;42.502;26.014;2023-05-22T13:07:45;99602.25;;;24.44;44.38
48424;BME280;34232;42.502;26.014;2023-05-22T13:10:10;99610.75;;;24.40;43.53